Flight Track Log - Related Links

Times and Time Zones

All times are in EDT time to prevent confusion due to time zone crossing. See the EJA820 flight status page for this flight to view local times or setup timezone preferences in your user account.

Time Position Orientation Groundspeed Altitude Reporting Facility
EDT Latitude Longitude Course Direction KTS MPH feet Rate Location/Type
Sat 11:10:53 AM 35.7739 -81.4228 208° Southwest 174 200 5,200  Level Atlanta Center
Sat 11:11:53 AM 35.7328 -81.4497 208° Southwest 186 214 5,000 -50 Descending Atlanta Center
Sat 11:12:53 AM 35.7419 -81.3906 79° East 191 220 5,100 -1,938 Climbing Atlanta Center
Sat 11:13:29 AM 35.7297 -81.4064 226° Southwest 191 220 1,900 125 Descending Atlanta Center
Sat 11:14:29 AM 35.6872 -81.4742 232° Southwest 215 247 5,300 3,400 Climbing Atlanta Center
Sat 11:15:29 AM 35.6428 -81.5394 230° Southwest 239 275 8,700 2,700 Climbing Atlanta Center
Sat 11:16:29 AM 35.6003 -81.6097 233° Southwest 251 289 10,700 1,150 Climbing Atlanta Center
Sat 11:17:29 AM 35.5497 -81.6828 230° Southwest 267 307 11,000 250 Climbing Atlanta Center
Sat 11:18:29 AM 35.4753 -81.7206 202° Southwest 298 343 11,200 1,550 Climbing Atlanta Center
Sat 11:19:29 AM 35.3828 -81.6825 161° South 333 383 14,100 2,700 Climbing Atlanta Center
Sat 11:20:29 AM 35.2903 -81.6444 161° South 346 398 16,600 2,400 Climbing Atlanta Center
Sat 11:21:29 AM 35.1933 -81.6039 161° South 351 404 18,900 2,400 Climbing Atlanta Center
Sat 11:22:29 AM 35.1008 -81.5636 160° South 357 411 21,400 2,250 Climbing Atlanta Center
Sat 11:23:29 AM 35.0039 -81.5258 162° South 357 411 23,400 1,950 Climbing Atlanta Center
Sat 11:24:29 AM 34.9114 -81.4856 160° South 362 417 25,300 1,750 Climbing Atlanta Center
Sat 11:25:29 AM 34.8189 -81.4506 163° South 362 417 26,900 1,450 Climbing Atlanta Center
Sat 11:26:29 AM 34.7367 -81.4125 159° South 351 404 28,200 1,550 Climbing Atlanta Center
Sat 11:27:29 AM 34.6461 -81.3750 161° South 351 404 30,000 1,950 Climbing Atlanta Center
Sat 11:28:29 AM 34.5578 -81.3400 162° South 328 377 32,100 2,474 Climbing Atlanta Center
Sat 11:30:43 AM 34.3819 -81.3503 183° South 288 331 38,000 1,825 Climbing Jacksonville Center
Sat 11:31:43 AM 34.3031 -81.3742 194° South 288 331 38,000 -650 Level Jacksonville Center
Sat 11:32:43 AM 34.2261 -81.3933 192° South 288 331 36,700 -248 Descending Jacksonville Center
Sat 11:33:44 AM 34.1511 -81.4094 190° South 282 325 37,500 650 Climbing Jacksonville Center
Sat 11:34:43 AM 34.0719 -81.4311 193° South 282 325 38,000 252 Climbing Jacksonville Center
Sat 11:35:43 AM 33.9867 -81.4500 190° South 297 342 38,000  Level Jacksonville Center
Sat 11:36:44 AM 33.8950 -81.4664 188° South 316 364 38,000  Level Jacksonville Center
Sat 11:37:43 AM 33.8036 -81.4853 190° South 334 384 38,000  Level Jacksonville Center
Sat 11:38:43 AM 33.7139 -81.5019 189° South 334 384 38,000  Level Jacksonville Center
Sat 11:39:43 AM 33.6222 -81.5183 188° South 334 384 38,000  Level Jacksonville Center
Sat 11:40:44 AM 33.5306 -81.5347 188° South 334 384 38,000  Level Jacksonville Center
Sat 11:41:43 AM 33.4392 -81.5508 188° South 334 384 38,000  Level Jacksonville Center
Sat 11:42:43 AM 33.3494 -81.5697 190° South 334 384 38,000  Level Jacksonville Center
Sat 11:43:43 AM 33.2600 -81.5833 187° South 334 384 38,000  Level Jacksonville Center
Sat 11:44:43 AM 33.1786 -81.6019 191° South 334 384 38,000  Level Jacksonville Center
Sat 11:45:43 AM 33.0850 -81.6208 190° South 334 384 38,000  Level Jacksonville Center
Sat 11:46:43 AM 32.9911 -81.6369 188° South 334 384 38,000  Level Jacksonville Center
Sat 11:47:43 AM 32.8975 -81.6556 189° South 334 384 38,000  Level Jacksonville Center
Sat 11:48:43 AM 32.8078 -81.6692 187° South 334 384 38,000  Level Jacksonville Center
Sat 11:49:43 AM 32.7097 -81.6853 188° South 334 384 38,000  Level Jacksonville Center
Sat 11:50:43 AM 32.6142 -81.7086 192° South 334 384 38,000  Level Jacksonville Center
Sat 11:51:44 AM 32.5286 -81.7222 188° South 341 392 38,000  Level Jacksonville Center
Sat 11:52:43 AM 32.4264 -81.7408 189° South 346 398 38,000  Level Jacksonville Center
Sat 11:53:43 AM 32.3306 -81.7592 189° South 346 398 38,000  Level Jacksonville Center
Sat 11:54:43 AM 32.2450 -81.7725 188° South 351 404 38,000  Level Jacksonville Center
Sat 11:55:43 AM 32.1408 -81.7908 188° South 351 404 38,000 50 Level Jacksonville Center
Sat 11:56:43 AM 32.0575 -81.8067 189° South 351 404 38,100 550 Climbing Jacksonville Center
Sat 11:57:43 AM 31.9553 -81.8250 189° South 346 398 39,100 800 Climbing Jacksonville Center
Sat 11:58:43 AM 31.8617 -81.8433 189° South 346 398 39,700 450 Climbing Jacksonville Center
Sat 11:59:43 AM 31.7781 -81.8564 188° South 346 398 40,000 150 Climbing Jacksonville Center
Sat 12:00:43 PM 31.6717 -81.8747 188° South 351 404 40,000  Level Jacksonville Center
Sat 12:01:43 PM 31.5822 -81.8928 190° South 356 410 40,000  Level Jacksonville Center
Sat 12:02:43 PM 31.4736 -81.9108 188° South 367 422 40,000  Level Jacksonville Center
Sat 12:03:43 PM 31.3758 -81.9267 188° South 367 422 40,000  Level Jacksonville Center
Sat 12:04:43 PM 31.2756 -81.9444 189° South 367 422 40,000  Level Jacksonville Center
Sat 12:05:43 PM 31.1756 -81.9625 189° South 367 422 40,000  Level Jacksonville Center
Sat 12:06:43 PM 31.0756 -81.9806 189° South 367 422 40,000  Level Jacksonville Center
Sat 12:07:43 PM 30.9733 -81.9986 189° South 367 422 40,000  Level Jacksonville Center
Sat 12:08:43 PM 30.8711 -82.0164 188° South 372 428 40,000  Level Jacksonville Center
Sat 12:09:43 PM 30.7689 -82.0342 188° South 372 428 40,000  Level Jacksonville Center
Sat 12:10:43 PM 30.6728 -82.0400 183° South 372 428 40,000  Level Jacksonville Center
Sat 12:11:43 PM 30.5664 -82.0289 175° South 377 434 40,000  Level Jacksonville Center
Sat 12:12:44 PM 30.4556 -82.0106 172° South 392 451 40,000  Level Jacksonville Center
Sat 12:13:43 PM 30.3469 -81.9994 175° South 392 451 40,000  Level Jacksonville Center
Sat 12:14:43 PM 30.2342 -81.9861 174° South 397 457 40,000  Level Jacksonville Center
Sat 12:15:44 PM 30.1233 -81.9753 175° South 404 465 40,000 -200 Level Jacksonville Center
Sat 12:16:43 PM 30.0106 -81.9692 177° South 409 471 39,600 -706 Descending Jacksonville Center
Sat 12:17:43 PM 29.8997 -81.9558 174° South 404 465 38,600 -1,000 Descending Jacksonville Center
Sat 12:18:43 PM 29.7911 -81.9447 175° South 404 465 37,600 -950 Descending Jacksonville Center
Sat 12:19:43 PM 29.6847 -81.9339 175° South 399 459 36,700 -950 Descending Jacksonville Center
Sat 12:20:43 PM 29.5781 -81.9206 174° South 394 453 35,700 -850 Descending Jacksonville Center
Sat 12:21:43 PM 29.4714 -81.9122 176° South 388 447 35,000 -350 Descending Jacksonville Center
Sat 12:22:43 PM 29.3608 -81.8989 174° South 388 447 35,000 -150 Level Jacksonville Center
Sat 12:23:43 PM 29.2522 -81.8858 174° South 388 447 34,700 -500 Descending Jacksonville Center
Sat 12:24:43 PM 29.1414 -81.8703 173° South 394 453 34,000 -550 Descending Jacksonville Center
Sat 12:25:43 PM 29.0306 -81.8594 175° South 401 461 33,600 -950 Descending Jacksonville Center
Sat 12:26:43 PM 28.9117 -81.8489 176° South 401 461 32,100 -1,500 Descending Jacksonville Center
Sat 12:27:43 PM 28.7989 -81.8336 173° South 407 468 30,600 -1,493 Descending Jacksonville Center
Sat 12:30:04 PM 28.5369 -81.8019 174° South 413 475 27,100 -1,433 Descending Miami Center
Sat 12:31:04 PM 28.4294 -81.7736 167° South 408 470 25,800 -1,050 Descending Miami Center
Sat 12:32:04 PM 28.3281 -81.7431 165° South 408 470 25,000 -500 Descending Miami Center
Sat 12:33:04 PM 28.2183 -81.7219 170° South 408 470 24,800 -500 Descending Miami Center
Sat 12:34:04 PM 28.1064 -81.6983 169° South 408 470 24,000 -600 Descending Miami Center
Sat 12:35:04 PM 27.9986 -81.6772 170° South 408 470 23,600 -500 Descending Miami Center
Sat 12:36:04 PM 27.8867 -81.6558 170° South 408 470 23,000 -850 Descending Miami Center
Sat 12:37:04 PM 27.7728 -81.6325 170° South 395 455 21,900 -1,250 Descending Miami Center
Sat 12:38:04 PM 27.6669 -81.6092 169° South 385 443 20,500 -1,600 Descending Miami Center
Sat 12:39:04 PM 27.5675 -81.5911 171° South 385 443 18,700 -1,750 Descending Miami Center
Sat 12:40:04 PM 27.4761 -81.5756 171° South 379 436 17,000 -1,850 Descending Miami Center
Sat 12:41:04 PM 27.3789 -81.5528 168° South 369 425 15,000 -1,800 Descending Miami Center
Sat 12:42:04 PM 27.2811 -81.5372 172° South 363 418 13,400 -1,550 Descending Miami Center
Sat 12:43:04 PM 27.1836 -81.5169 170° South 363 418 11,900 -1,100 Descending Miami Center
Sat 12:44:04 PM 27.0925 -81.4992 170° South 356 410 11,200 -950 Descending Miami Center
Sat 12:45:04 PM 27.0117 -81.4797 168° South 331 381 10,000 -600 Descending Miami Center
Sat 12:46:04 PM 26.9336 -81.4394 155° Southeast 288 331 10,000 -450 Level Miami Center
Sat 12:47:04 PM 26.8617 -81.4064 158° South 277 319 9,100 -1,600 Descending Miami Center
Sat 12:48:04 PM 26.7914 -81.3803 162° South 272 313 6,800 -2,050 Descending Miami Center
Sat 12:49:04 PM 26.7267 -81.3778 178° South 259 298 5,000 -900 Descending Miami Center
Sat 12:50:04 PM 26.6603 -81.3706 174° South 252 290 5,000 -500 Level Miami Center
Sat 12:51:04 PM 26.5833 -81.3608 174° South 252 290 4,000 -700 Descending Miami Center
Sat 12:52:04 PM 26.5419 -81.4125 228° Southwest 223 257 3,600 -500 Descending Miami Center
Sat 12:53:04 PM 26.5375 -81.4889 266° West 206 237 3,000 -600 Descending Miami Center
Sat 12:55:00 PM 26.5365 -81.7044 204° Southwest  Level Estimated
Sat 01:02:00 PM 26.5333 -81.7500 318° Northwest  Level FlightAware Approximate
Sat 01:03:00 PM 26.4259 -81.7572 180° South  Level Estimated

Login

Don't have an account? Register now (free) for customized features, flight alerts, and more!